createdAt,value
2023-01-28T00:01:59.216Z,-0.80
2023-01-28T00:05:00.135Z,-0.90
2023-01-28T00:08:01.042Z,-1.00
2023-01-28T00:11:03.453Z,-0.90
2023-01-28T00:14:04.955Z,-1.00
2023-01-28T00:17:06.656Z,-1.00
2023-01-28T00:20:08.391Z,-1.00
2023-01-28T00:23:09.233Z,-0.90
2023-01-28T00:26:15.511Z,-1.00
2023-01-28T00:29:17.911Z,-1.00
2023-01-28T00:32:18.848Z,-1.00
2023-01-28T00:35:19.639Z,-1.00
2023-01-28T00:38:20.658Z,-1.00
2023-01-28T00:41:24.740Z,-1.00
2023-01-28T00:44:25.237Z,-1.00
2023-01-28T00:47:26.226Z,-1.00
2023-01-28T00:50:27.063Z,-1.00
2023-01-28T00:53:28.891Z,-1.00
2023-01-28T00:56:30.072Z,-1.00
2023-01-28T00:59:30.884Z,-1.00
2023-01-28T01:02:32.209Z,-1.00
2023-01-28T01:05:34.059Z,-1.00
2023-01-28T01:08:35.810Z,-1.00
2023-01-28T01:11:37.199Z,-1.10
2023-01-28T01:14:38.377Z,-1.10
2023-01-28T01:17:40.848Z,-1.00
2023-01-28T01:20:45.633Z,-1.10
2023-01-28T01:23:47.517Z,-1.10
2023-01-28T01:26:48.633Z,-1.10
2023-01-28T01:29:49.633Z,-1.10
2023-01-28T01:32:50.515Z,-1.10
2023-01-28T01:35:57.545Z,-1.10
2023-01-28T01:39:00.351Z,-1.00
2023-01-28T01:42:01.920Z,-1.10
2023-01-28T01:45:06.329Z,-1.00
2023-01-28T01:48:15.807Z,-1.10
2023-01-28T01:51:22.053Z,-1.00
2023-01-28T01:54:26.689Z,-1.10
2023-01-28T01:57:31.220Z,-1.10
2023-01-28T02:00:31.764Z,-1.10
2023-01-28T02:03:41.579Z,-1.10
2023-01-28T02:06:42.970Z,-1.00
2023-01-28T02:09:44.031Z,-1.00
2023-01-28T02:12:56.801Z,-1.00
2023-01-28T02:16:01.897Z,-1.00
2023-01-28T02:19:02.837Z,-1.00
2023-01-28T02:22:10.801Z,-1.00
2023-01-28T02:25:35.133Z,-1.00
2023-01-28T02:29:01.223Z,-1.00
2023-01-28T02:32:15.932Z,-1.00
2023-01-28T02:35:22.823Z,-1.00
2023-01-28T02:38:35.548Z,-1.00
2023-01-28T02:41:46.860Z,-1.00
2023-01-28T02:44:48.499Z,-1.00
2023-01-28T02:47:58.296Z,-1.00
2023-01-28T02:51:20.264Z,-1.00
2023-01-28T02:54:29.768Z,-1.00
2023-01-28T02:58:11.988Z,-1.00
2023-01-28T03:01:25.680Z,-1.00
2023-01-28T03:04:34.932Z,-1.00
2023-01-28T03:07:38.677Z,-1.00
2023-01-28T03:10:39.259Z,-1.00
2023-01-28T03:14:00.905Z,-1.00
2023-01-28T03:17:22.585Z,-1.00
2023-01-28T03:20:46.093Z,-1.00
2023-01-28T03:24:17.869Z,-1.00
2023-01-28T03:27:41.337Z,-1.00
2023-01-28T03:31:15.725Z,-1.00
2023-01-28T03:34:42.057Z,-1.00
2023-01-28T03:37:43.068Z,-1.00
2023-01-28T03:40:53.277Z,-1.00
2023-01-28T03:43:54.941Z,-0.90
2023-01-28T03:46:56.034Z,-0.90
2023-01-28T03:49:59.960Z,-1.00
2023-01-28T03:53:15.907Z,-1.00
2023-01-28T03:56:24.545Z,-1.00
2023-01-28T03:59:27.333Z,-1.00
2023-01-28T04:02:28.550Z,-1.00
2023-01-28T04:05:29.675Z,-0.90
2023-01-28T04:08:32.338Z,-1.00
2023-01-28T04:12:00.116Z,-1.00
2023-01-28T04:15:17.519Z,-0.90
2023-01-28T04:18:21.019Z,-0.90
2023-01-28T04:21:24.269Z,-1.00
2023-01-28T04:24:25.447Z,-1.00
2023-01-28T04:27:26.814Z,-1.00
2023-01-28T04:30:28.701Z,-0.90
2023-01-28T04:33:39.368Z,-1.00
2023-01-28T04:37:09.500Z,-1.00
2023-01-28T04:40:36.777Z,-1.00
2023-01-28T04:43:46.476Z,-1.00
2023-01-28T04:47:06.247Z,-1.00
2023-01-28T04:50:19.328Z,-1.00
2023-01-28T04:53:46.368Z,-1.00
2023-01-28T04:57:05.464Z,-0.90
2023-01-28T05:00:06.937Z,-1.00
2023-01-28T05:03:07.775Z,-1.00
2023-01-28T05:06:09.175Z,-0.90
2023-01-28T05:09:30.643Z,-1.00
2023-01-28T05:12:33.184Z,-0.90
2023-01-28T05:15:36.835Z,-0.90
2023-01-28T05:18:37.900Z,-0.90
2023-01-28T05:21:43.355Z,-0.90
2023-01-28T05:25:08.672Z,-0.90
2023-01-28T05:28:09.315Z,-0.90
2023-01-28T05:31:11.635Z,-0.90
2023-01-28T05:34:12.949Z,-0.90
2023-01-28T05:37:13.704Z,-0.90
2023-01-28T05:40:15.401Z,-0.90
2023-01-28T05:43:16.570Z,-0.90
2023-01-28T05:46:20.644Z,-0.90
2023-01-28T05:49:36.740Z,-0.90
2023-01-28T05:52:56.053Z,-0.90
2023-01-28T05:56:01.687Z,-0.90
2023-01-28T05:59:05.750Z,-0.90
2023-01-28T06:02:07.767Z,-0.90
2023-01-28T06:05:10.118Z,-0.90
2023-01-28T06:08:11.832Z,-0.90
2023-01-28T06:11:12.638Z,-0.90
2023-01-28T06:14:14.154Z,-0.90
2023-01-28T06:17:33.292Z,-0.90
2023-01-28T06:20:42.247Z,-1.00
2023-01-28T06:23:44.053Z,-0.90
2023-01-28T06:26:45.213Z,-0.90
2023-01-28T06:29:46.229Z,-0.90
2023-01-28T06:32:47.069Z,-0.90
2023-01-28T06:35:48.369Z,-0.90
2023-01-28T06:38:49.199Z,-0.90
2023-01-28T06:41:50.704Z,-0.90
2023-01-28T06:44:51.608Z,-0.90
2023-01-28T06:47:52.362Z,-0.90
2023-01-28T06:50:54.283Z,-0.90
2023-01-28T06:53:54.925Z,-0.90
2023-01-28T06:56:55.703Z,-0.90
2023-01-28T06:59:56.650Z,-0.90
2023-01-28T07:02:58.210Z,-0.90
2023-01-28T07:05:59.092Z,-0.90
2023-01-28T07:09:00.042Z,-0.90
2023-01-28T07:12:00.730Z,-0.90
2023-01-28T07:15:01.576Z,-0.90
2023-01-28T07:18:03.098Z,-0.90
2023-01-28T07:21:04.292Z,-0.80
2023-01-28T07:24:06.341Z,-0.80
2023-01-28T07:27:07.466Z,-0.90
2023-01-28T07:30:09.197Z,-0.80
2023-01-28T07:33:10.268Z,-0.80
2023-01-28T07:36:10.821Z,-0.80
2023-01-28T07:39:11.751Z,-0.80
2023-01-28T07:42:12.460Z,-0.80
2023-01-28T07:45:20.394Z,-0.70
2023-01-28T07:48:21.338Z,-0.70
2023-01-28T07:51:22.338Z,-0.60
2023-01-28T07:54:23.127Z,-0.70
2023-01-28T07:57:24.018Z,-0.70
2023-01-28T08:00:26.191Z,-0.60
2023-01-28T08:03:28.307Z,-0.60
2023-01-28T08:06:29.565Z,-0.60
2023-01-28T08:09:30.442Z,-0.60
2023-01-28T08:12:31.320Z,-0.70
2023-01-28T08:15:34.997Z,-0.60
2023-01-28T08:18:36.008Z,-0.70
2023-01-28T08:21:36.632Z,-0.60
2023-01-28T08:24:37.471Z,-0.60
2023-01-28T08:27:38.426Z,-0.60
2023-01-28T08:30:39.424Z,-0.60
2023-01-28T08:33:40.368Z,-0.60
2023-01-28T08:36:41.287Z,-0.60
2023-01-28T08:39:44.317Z,-0.50
2023-01-28T08:42:51.490Z,-0.60
2023-01-28T08:45:52.542Z,-0.60
2023-01-28T08:48:53.536Z,-0.60
2023-01-28T08:51:55.703Z,-0.50
2023-01-28T08:54:57.034Z,-0.50
2023-01-28T08:57:58.755Z,-0.40
2023-01-28T09:01:04.973Z,-0.40
2023-01-28T09:04:05.783Z,-0.30
2023-01-28T09:07:06.305Z,-0.20
2023-01-28T09:10:07.500Z,0.00
2023-01-28T09:13:14.530Z,0.50
2023-01-28T09:16:15.368Z,0.90
2023-01-28T09:19:16.447Z,1.20
2023-01-28T09:22:17.719Z,1.20
2023-01-28T09:25:18.848Z,1.30
2023-01-28T09:28:19.845Z,1.00
2023-01-28T09:31:20.835Z,0.70
2023-01-28T09:34:21.815Z,0.50
2023-01-28T09:37:22.762Z,0.40
2023-01-28T09:40:43.619Z,0.30
2023-01-28T09:43:50.487Z,0.40
2023-01-28T09:46:51.966Z,0.50
2023-01-28T09:49:57.227Z,0.50
2023-01-28T09:53:04.910Z,0.60
2023-01-28T09:56:17.193Z,0.70
2023-01-28T09:59:21.377Z,0.80
2023-01-28T10:02:32.344Z,0.90
2023-01-28T10:05:55.781Z,0.90
2023-01-28T10:09:20.603Z,0.80
2023-01-28T10:12:58.752Z,0.70
2023-01-28T10:16:08.856Z,0.90
2023-01-28T10:19:30.779Z,1.10
2023-01-28T10:22:39.532Z,1.70
2023-01-28T10:25:45.213Z,1.80
2023-01-28T10:28:50.556Z,1.70
2023-01-28T10:31:54.511Z,2.00
2023-01-28T10:34:56.520Z,2.20
2023-01-28T10:38:02.513Z,2.20
2023-01-28T10:41:04.743Z,2.00
2023-01-28T10:44:06.059Z,1.70
2023-01-28T10:47:15.624Z,2.10
2023-01-28T10:50:24.323Z,2.40
2023-01-28T10:53:37.599Z,2.30
2023-01-28T10:56:38.565Z,3.50
2023-01-28T10:59:43.040Z,2.50
2023-01-28T11:02:44.112Z,5.60
2023-01-28T11:05:52.318Z,8.30
2023-01-28T11:08:53.343Z,8.40
2023-01-28T11:11:54.511Z,10.40
2023-01-28T11:14:56.589Z,10.80
2023-01-28T11:18:15.782Z,7.00
2023-01-28T11:21:27.954Z,4.60
2023-01-28T11:24:31.346Z,3.70
2023-01-28T11:27:33.358Z,3.10
2023-01-28T11:30:40.606Z,2.70
2023-01-28T11:34:02.304Z,2.50
2023-01-28T11:37:11.547Z,2.40
2023-01-28T11:40:21.461Z,2.20
2023-01-28T11:43:26.322Z,2.20
2023-01-28T11:46:52.351Z,2.20
2023-01-28T11:50:11.279Z,2.20
2023-01-28T11:53:42.823Z,2.10
2023-01-28T11:57:04.820Z,2.10
2023-01-28T12:00:30.218Z,1.80
2023-01-28T12:03:58.155Z,1.60
2023-01-28T12:07:24.056Z,1.50
2023-01-28T12:10:57.567Z,1.50
2023-01-28T12:14:21.713Z,1.60
2023-01-28T12:17:38.423Z,1.60
2023-01-28T12:20:47.130Z,1.60
2023-01-28T12:24:02.928Z,1.50
2023-01-28T12:27:40.861Z,1.40
2023-01-28T12:31:05.659Z,1.60
2023-01-28T12:34:31.881Z,1.80
2023-01-28T12:37:47.416Z,1.90
2023-01-28T12:40:57.823Z,2.00
2023-01-28T12:44:10.338Z,2.10
2023-01-28T12:47:15.964Z,1.90
2023-01-28T12:50:31.701Z,1.90
2023-01-28T12:53:45.748Z,1.90
2023-01-28T12:56:52.851Z,1.70
2023-01-28T13:00:03.295Z,1.90
2023-01-28T13:03:31.506Z,2.20
2023-01-28T13:06:44.458Z,1.90
2023-01-28T13:10:17.774Z,1.50
2023-01-28T13:13:33.926Z,1.50
2023-01-28T13:16:37.913Z,1.40
2023-01-28T13:19:42.634Z,1.50
2023-01-28T13:22:45.432Z,1.60
2023-01-28T13:25:51.608Z,1.40
2023-01-28T13:28:53.924Z,1.40
2023-01-28T13:32:03.016Z,1.40
2023-01-28T13:35:08.221Z,1.30
2023-01-28T13:38:20.416Z,1.30
2023-01-28T13:41:21.304Z,1.20
2023-01-28T13:44:33.911Z,1.30
2023-01-28T13:47:37.715Z,1.40
2023-01-28T13:50:42.177Z,1.30
2023-01-28T13:53:57.792Z,1.20
2023-01-28T13:57:01.581Z,1.10
2023-01-28T14:00:40.384Z,1.10
2023-01-28T14:04:15.001Z,1.00
2023-01-28T14:07:45.247Z,1.00
2023-01-28T14:11:12.060Z,0.90
2023-01-28T14:14:40.193Z,0.90
2023-01-28T14:17:53.517Z,1.00
2023-01-28T14:21:00.629Z,1.00
2023-01-28T14:24:01.654Z,1.00
2023-01-28T14:27:07.566Z,1.00
2023-01-28T14:30:24.868Z,1.00
2023-01-28T14:33:25.625Z,0.90
2023-01-28T14:36:26.615Z,0.90
2023-01-28T14:39:31.032Z,0.80
2023-01-28T14:42:41.363Z,0.80
2023-01-28T14:46:32.189Z,0.80
2023-01-28T14:49:37.552Z,0.80
2023-01-28T14:52:40.536Z,0.70
2023-01-28T14:56:08.698Z,0.70
2023-01-28T14:59:23.542Z,0.70
2023-01-28T15:02:27.311Z,0.70
2023-01-28T15:05:29.461Z,0.70
2023-01-28T15:08:32.491Z,0.70
2023-01-28T15:11:36.137Z,0.70
2023-01-28T15:14:37.039Z,0.70
2023-01-28T15:17:37.957Z,0.60
2023-01-28T15:20:39.428Z,0.60
2023-01-28T15:23:43.194Z,0.60
2023-01-28T15:26:47.646Z,0.50
2023-01-28T15:29:53.990Z,0.60
2023-01-28T15:33:15.449Z,0.60
2023-01-28T15:36:16.807Z,0.60
2023-01-28T15:39:21.240Z,0.60
2023-01-28T15:42:26.625Z,0.60
2023-01-28T15:45:29.459Z,0.50
2023-01-28T15:48:33.987Z,0.60
2023-01-28T15:51:36.446Z,0.50
2023-01-28T15:54:43.215Z,0.50
2023-01-28T15:57:44.107Z,0.40
2023-01-28T16:00:46.110Z,0.40
2023-01-28T16:04:00.903Z,0.40
2023-01-28T16:07:05.170Z,0.40
2023-01-28T16:10:06.354Z,0.40
2023-01-28T16:13:19.775Z,0.40
2023-01-28T16:16:35.998Z,0.40
2023-01-28T16:19:43.129Z,0.40
2023-01-28T16:22:43.970Z,0.40
2023-01-28T16:25:45.007Z,0.30
2023-01-28T16:28:45.885Z,0.40
2023-01-28T16:31:46.962Z,0.30
2023-01-28T16:34:47.896Z,0.30
2023-01-28T16:37:49.806Z,0.30
2023-01-28T16:40:50.879Z,0.30
2023-01-28T16:43:51.438Z,0.30
2023-01-28T16:46:52.540Z,0.30
2023-01-28T16:49:53.694Z,0.30
2023-01-28T16:52:55.788Z,0.30
2023-01-28T16:55:56.537Z,0.30
2023-01-28T16:58:57.786Z,0.30
2023-01-28T17:01:58.570Z,0.30
2023-01-28T17:04:59.429Z,0.20
2023-01-28T17:08:00.291Z,0.20
2023-01-28T17:11:01.223Z,0.20
2023-01-28T17:14:02.506Z,0.10
2023-01-28T17:17:03.191Z,0.10
2023-01-28T17:20:05.101Z,0.10
2023-01-28T17:23:15.670Z,0.10
2023-01-28T17:26:17.505Z,0.10
2023-01-28T17:29:18.579Z,0.10
2023-01-28T17:32:19.572Z,0.10
2023-01-28T17:35:20.319Z,0.10
2023-01-28T17:38:21.248Z,0.00
2023-01-28T17:41:22.462Z,0.00
2023-01-28T17:44:23.511Z,0.00
2023-01-28T17:47:24.142Z,0.10
2023-01-28T17:50:25.140Z,0.10
2023-01-28T17:53:25.901Z,0.10
2023-01-28T17:56:28.737Z,0.00
2023-01-28T17:59:29.556Z,0.00
2023-01-28T18:02:30.247Z,0.00
2023-01-28T18:05:31.062Z,0.00
2023-01-28T18:08:32.043Z,0.10
2023-01-28T18:11:33.112Z,0.10
2023-01-28T18:14:34.715Z,0.10
2023-01-28T18:17:36.711Z,0.10
2023-01-28T18:20:37.656Z,0.10
2023-01-28T18:23:38.791Z,0.10
2023-01-28T18:26:39.596Z,0.00
2023-01-28T18:29:40.575Z,-0.10
2023-01-28T18:32:41.579Z,-0.10
2023-01-28T18:35:43.741Z,-0.20
2023-01-28T18:38:45.695Z,-0.20
2023-01-28T18:41:46.982Z,-0.30
2023-01-28T18:44:47.671Z,-0.40
2023-01-28T18:47:48.410Z,-0.50
2023-01-28T18:50:56.405Z,-0.50
2023-01-28T18:54:02.270Z,-0.60
2023-01-28T18:57:03.245Z,-0.60
2023-01-28T19:00:05.626Z,-0.60
2023-01-28T19:03:12.848Z,-0.50
2023-01-28T19:06:15.691Z,-0.60
2023-01-28T19:09:17.731Z,-0.70
2023-01-28T19:12:19.881Z,-0.70
2023-01-28T19:15:22.524Z,-0.70
2023-01-28T19:18:24.291Z,-0.70
2023-01-28T19:21:25.778Z,-0.70
2023-01-28T19:24:26.763Z,-0.70
2023-01-28T19:27:27.640Z,-0.60
2023-01-28T19:30:28.443Z,-0.60
2023-01-28T19:33:29.668Z,-0.60
2023-01-28T19:36:32.758Z,-0.60
2023-01-28T19:39:33.338Z,-0.60
2023-01-28T19:42:34.565Z,-0.70
2023-01-28T19:45:35.419Z,-0.70
2023-01-28T19:48:36.572Z,-0.70
2023-01-28T19:51:37.436Z,-0.80
2023-01-28T19:54:38.503Z,-0.80
2023-01-28T19:57:39.588Z,-0.80
2023-01-28T20:00:40.912Z,-0.90
2023-01-28T20:03:42.906Z,-0.90
2023-01-28T20:06:43.724Z,-0.90
2023-01-28T20:09:44.474Z,-1.00
2023-01-28T20:12:45.461Z,-0.90
2023-01-28T20:15:46.581Z,-1.00
2023-01-28T20:19:02.088Z,-0.90
2023-01-28T20:22:02.861Z,-1.00
2023-01-28T20:25:04.095Z,-0.90
2023-01-28T20:28:04.945Z,-1.00
2023-01-28T20:31:08.669Z,-1.00
2023-01-28T20:34:16.030Z,-1.00
2023-01-28T20:37:16.585Z,-1.00
2023-01-28T20:40:17.567Z,-1.20
2023-01-28T20:43:18.441Z,-1.30
2023-01-28T20:46:25.089Z,-1.30
2023-01-28T20:49:28.134Z,-1.30
2023-01-28T20:52:29.189Z,-1.30
2023-01-28T20:55:31.551Z,-1.30
2023-01-28T20:58:33.347Z,-1.30
2023-01-28T21:01:35.624Z,-1.30
2023-01-28T21:04:36.615Z,-1.30
2023-01-28T21:07:37.684Z,-1.30
2023-01-28T21:10:39.376Z,-1.40
2023-01-28T21:13:40.518Z,-1.40
2023-01-28T21:16:42.550Z,-1.50
2023-01-28T21:19:43.484Z,-1.60
2023-01-28T21:22:44.518Z,-1.70
2023-01-28T21:25:47.258Z,-1.70
2023-01-28T21:28:48.243Z,-1.80
2023-01-28T21:31:49.178Z,-1.80
2023-01-28T21:34:49.876Z,-1.80
2023-01-28T21:37:50.691Z,-1.80
2023-01-28T21:40:51.619Z,-1.70
2023-01-28T21:43:54.475Z,-1.80
2023-01-28T21:46:55.490Z,-1.90
2023-01-28T21:49:57.878Z,-1.90
2023-01-28T21:52:58.746Z,-1.80
2023-01-28T21:55:59.563Z,-1.70
2023-01-28T21:59:19.123Z,-1.70
2023-01-28T22:02:22.761Z,-1.70
2023-01-28T22:05:24.762Z,-1.70
2023-01-28T22:08:25.759Z,-1.80
2023-01-28T22:11:26.684Z,-1.70
2023-01-28T22:14:27.697Z,-1.70
2023-01-28T22:17:28.579Z,-1.70
2023-01-28T22:20:31.390Z,-1.60
2023-01-28T22:23:32.483Z,-1.50
2023-01-28T22:26:33.061Z,-1.30
2023-01-28T22:29:33.767Z,-1.20
2023-01-28T22:32:34.659Z,-1.10
2023-01-28T22:35:35.680Z,-1.00
2023-01-28T22:38:37.080Z,-1.00
2023-01-28T22:41:38.472Z,-1.00
2023-01-28T22:44:39.133Z,-1.00
2023-01-28T22:47:40.153Z,-1.00
2023-01-28T22:50:41.058Z,-0.90
2023-01-28T22:53:42.059Z,-1.00
2023-01-28T22:56:43.494Z,-1.00
2023-01-28T22:59:59.235Z,-1.10
2023-01-28T23:03:01.379Z,-1.20
2023-01-28T23:06:04.711Z,-1.30
2023-01-28T23:09:05.375Z,-1.30
2023-01-28T23:12:07.495Z,-1.40
2023-01-28T23:15:28.728Z,-1.40
2023-01-28T23:18:49.004Z,-1.50
2023-01-28T23:22:09.208Z,-1.40
2023-01-28T23:25:10.404Z,-1.40
2023-01-28T23:28:11.504Z,-1.40
2023-01-28T23:31:12.381Z,-1.40
2023-01-28T23:34:17.259Z,-1.30
2023-01-28T23:37:18.344Z,-1.30
2023-01-28T23:40:21.081Z,-1.20
2023-01-28T23:43:22.304Z,-1.10
2023-01-28T23:46:37.800Z,-1.10
2023-01-28T23:49:40.835Z,-1.00
2023-01-28T23:52:41.615Z,-0.90
2023-01-28T23:55:42.486Z,-0.90
2023-01-28T23:58:44.202Z,-0.90
